Time;durP1;ratioP1;P1;durP2;ratioP2;P2;SDS_P1;SDS_P2;PMS_P1;PMS_P2;Temp;Humidity;BMP_temperature;BMP_pressure;BME280_temperature;BME280_humidity;BME280_pressure;Samples;Min_cycle;Max_cycle;Signal;HPM_P1;HPM_P2
2023/06/29 00:00:28;;;;;;;;;3.00;3.00;;;;;14.72;100.00;98313.56;4933310;28;103997;-71
2023/06/29 00:02:57;;;;;;;;;4.00;4.00;;;;;14.43;100.00;98265.44;4935752;28;102244;-70
2023/06/29 00:05:41;;;;;;;;;5.00;4.00;;;;;14.73;100.00;98315.19;4931604;28;102553;-70
2023/06/29 00:08:35;;;;;;;;;3.00;3.00;;;;;14.78;100.00;98320.75;4932623;28;104004;-70
2023/06/29 00:11:22;;;;;;;;;2.00;2.00;;;;;14.78;100.00;98311.75;4933439;28;108189;-70
2023/06/29 00:13:57;;;;;;;;;5.00;4.50;;;;;14.69;100.00;98303.94;4934120;28;102078;-74
2023/06/29 00:16:24;;;;;;;;;5.00;4.00;;;;;14.78;100.00;98311.75;4936306;28;101988;-73
2023/06/29 00:18:55;;;;;;;;;4.50;3.25;;;;;14.76;100.00;98298.41;4938372;28;102228;-73
2023/06/29 00:21:22;;;;;;;;;3.00;3.00;;;;;14.80;100.00;98306.91;4935110;28;104037;-71
2023/06/29 00:23:50;;;;;;;;;3.75;3.75;;;;;14.83;100.00;98315.44;4936557;28;102333;-72
2023/06/29 00:26:18;;;;;;;;;1.50;1.50;;;;;14.80;100.00;98294.16;4933965;28;102325;-72
2023/06/29 00:28:45;;;;;;;;;0.25;0.25;;;;;14.87;100.00;98311.19;4937699;28;102226;-73
2023/06/29 00:31:12;;;;;;;;;3.00;3.00;;;;;14.89;100.00;98309.06;4935380;28;103956;-72
2023/06/29 00:33:39;;;;;;;;;2.50;2.50;;;;;14.93;100.00;98310.25;4933222;28;102016;-72
2023/06/29 00:36:06;;;;;;;;;4.00;4.00;;;;;14.95;100.00;98312.75;4932205;28;102209;-72
2023/06/29 00:38:33;;;;;;;;;2.00;2.00;;;;;14.97;100.00;98310.59;4937190;28;102324;-72
2023/06/29 00:41:00;;;;;;;;;2.75;2.75;;;;;14.95;100.00;98304.56;4930470;28;108964;-72
2023/06/29 00:43:27;;;;;;;;;2.25;1.25;;;;;15.02;100.00;98308.84;4935373;28;102369;-72
2023/06/29 00:45:54;;;;;;;;;2.00;2.00;;;;;15.04;100.00;98306.69;4934830;28;102010;-72
2023/06/29 00:48:21;;;;;;;;;1.00;1.00;;;;;15.07;100.00;98302.69;4937897;28;102127;-72
2023/06/29 00:50:48;;;;;;;;;1.50;1.50;;;;;15.10;100.00;98302.19;4933829;28;104103;-72
2023/06/29 00:53:15;;;;;;;;;1.00;1.00;;;;;15.11;100.00;98312.03;4936086;28;103092;-73
2023/06/29 00:55:42;;;;;;;;;2.00;2.00;;;;;15.10;100.00;98305.75;4932109;28;102312;-73
2023/06/29 00:58:10;;;;;;;;;4.00;3.25;;;;;15.11;100.00;98312.84;4933616;28;102342;-72
2023/06/29 01:00:37;;;;;;;;;1.00;1.00;;;;;15.13;100.00;98301.72;4935013;28;104025;-73
2023/06/29 01:03:04;;;;;;;;;1.25;1.25;;;;;15.14;100.00;98311.53;4937224;28;107798;-71
2023/06/29 01:05:45;;;;;;;;;1.00;1.00;;;;;15.15;100.00;98302.31;4936470;28;101943;-72
2023/06/29 01:08:36;;;;;;;;;1.00;1.00;;;;;15.17;100.00;98302.91;4934551;28;102265;-72
2023/06/29 01:11:25;;;;;;;;;2.75;2.00;;;;;15.17;100.00;98306.44;4935321;28;107599;-73
2023/06/29 01:14:12;;;;;;;;;2.00;2.00;;;;;15.17;100.00;98305.63;4932302;28;102029;-71
2023/06/29 01:16:55;;;;;;;;;0.50;0.50;;;;;15.14;100.00;98296.03;4929279;28;101939;-71
2023/06/29 01:19:33;;;;;;;;;1.00;1.00;;;;;15.19;100.00;98307.03;4926708;28;102910;-70
2023/06/29 01:22:10;;;;;;;;;2.00;2.00;;;;;15.00;100.00;98275.56;4932805;28;110134;-71
2023/06/29 01:24:40;;;;;;;;;2.75;2.75;;;;;15.12;100.00;98294.63;4931735;28;102046;-71
2023/06/29 01:27:08;;;;;;;;;2.25;2.25;;;;;15.13;100.00;98310.72;4934685;28;102175;-71
2023/06/29 01:29:36;;;;;;;;;2.50;2.50;;;;;15.09;100.00;98301.34;4936659;28;104810;-73
2023/06/29 01:32:07;;;;;;;;;4.75;4.75;;;;;15.07;100.00;98311.69;4938902;28;104117;-70
2023/06/29 01:34:36;;;;;;;;;4.00;4.00;;;;;14.91;100.00;98278.88;4932577;28;102032;-70
2023/06/29 01:37:11;;;;;;;;;3.00;3.00;;;;;15.10;100.00;98305.75;4934132;28;102314;-71
2023/06/29 01:39:49;;;;;;;;;2.00;2.00;;;;;15.13;100.00;98304.44;4936415;28;102099;-70
2023/06/29 01:42:17;;;;;;;;;2.75;2.00;;;;;15.15;100.00;98289.53;4931802;28;104127;-73
2023/06/29 01:44:44;;;;;;;;;3.25;3.00;;;;;15.17;100.00;98295.53;4930368;28;102893;-71
2023/06/29 01:47:13;;;;;;;;;3.00;3.00;;;;;15.17;100.00;98298.28;4934558;28;101896;-70
2023/06/29 01:49:40;;;;;;;;;4.50;3.00;;;;;15.18;100.00;98294.50;4935407;28;102388;-73
2023/06/29 01:52:08;;;;;;;;;4.00;2.75;;;;;15.18;100.00;98301.81;4938387;28;104339;-70
2023/06/29 01:54:35;;;;;;;;;4.75;4.50;;;;;15.16;100.00;98293.09;4938622;28;103094;-73
2023/06/29 01:57:05;;;;;;;;;2.00;2.00;;;;;15.18;100.00;98305.38;4935923;28;102172;-70
2023/06/29 01:59:32;;;;;;;;;4.25;4.00;;;;;15.18;100.00;98301.81;4933222;28;102387;-71
2023/06/29 02:01:59;;;;;;;;;3.00;3.00;;;;;15.19;100.00;98304.31;4940237;28;104045;-71
2023/06/29 02:04:26;;;;;;;;;3.25;3.25;;;;;15.21;100.00;98303.25;4938793;28;102076;-71
2023/06/29 02:06:54;;;;;;;;;5.75;5.25;;;;;15.19;100.00;98301.59;4939935;28;102436;-72
2023/06/29 02:09:21;;;;;;;;;3.50;3.50;;;;;15.23;100.00;98309.28;4938541;28;102489;-71
2023/06/29 02:11:48;;;;;;;;;5.00;4.50;;;;;15.22;100.00;98310.38;4934616;28;104265;-71
2023/06/29 02:14:18;;;;;;;;;2.25;2.00;;;;;15.22;100.00;98310.38;4939966;28;101845;-71
2023/06/29 02:16:46;;;;;;;;;2.50;2.50;;;;;15.21;100.00;98311.44;4938471;28;102840;-71
2023/06/29 02:19:13;;;;;;;;;3.00;3.00;;;;;15.21;100.00;98315.00;4937708;28;102208;-71
2023/06/29 02:21:41;;;;;;;;;2.75;2.75;;;;;15.20;100.00;98316.06;4938182;28;104197;-71
2023/06/29 02:24:08;;;;;;;;;3.50;3.00;;;;;15.15;100.00;98305.88;4940025;28;101966;-71
2023/06/29 02:26:35;;;;;;;;;3.25;3.00;;;;;15.23;100.00;98307.41;4942732;28;102315;-71
2023/06/29 02:29:02;;;;;;;;;2.75;2.75;;;;;15.22;100.00;98297.56;4940105;28;102355;-70
2023/06/29 02:31:29;;;;;;;;;1.75;1.75;;;;;15.22;100.00;98304.94;4935106;28;103484;-71
2023/06/29 02:33:56;;;;;;;;;1.50;0.00;;;;;15.22;100.00;98303.00;4934638;28;102301;-71
2023/06/29 02:36:23;;;;;;;;;1.75;1.75;;;;;15.18;100.00;98313.56;4938363;28;103701;-73
2023/06/29 02:38:51;;;;;;;;;2.75;1.25;;;;;15.18;100.00;98310.81;4938050;28;102510;-71
2023/06/29 02:41:18;;;;;;;;;3.25;3.25;;;;;15.18;100.00;98310.81;4937545;28;104019;-72
2023/06/29 02:43:45;;;;;;;;;6.00;4.25;;;;;15.18;100.00;98316.28;4934973;28;102153;-70
2023/06/29 02:46:12;;;;;;;;;4.00;4.00;;;;;15.21;100.00;98316.88;4934019;28;101965;-73
2023/06/29 02:48:39;;;;;;;;;2.75;2.75;;;;;15.19;100.00;98315.22;4939276;28;102014;-71
2023/06/29 02:51:07;;;;;;;;;2.25;2.25;;;;;15.18;100.00;98315.44;4938114;28;104227;-73
2023/06/29 02:53:34;;;;;;;;;3.00;3.00;;;;;15.19;100.00;98315.22;4939004;28;102036;-73
2023/06/29 02:56:01;;;;;;;;;4.25;4.00;;;;;15.10;100.00;98302.19;4935880;28;102072;-70
2023/06/29 02:58:28;;;;;;;;;4.75;4.75;;;;;15.22;100.00;98321.28;4936740;28;103493;-72
2023/06/29 03:00:55;;;;;;;;;3.50;3.50;;;;;15.21;100.00;98325.06;4934546;28;104109;-72
2023/06/29 03:03:22;;;;;;;;;4.00;4.00;;;;;15.22;100.00;98326.72;4937061;28;103707;-72
2023/06/29 03:05:49;;;;;;;;;5.75;5.00;;;;;15.11;100.00;98312.03;4935295;28;101880;-72
2023/06/29 03:08:16;;;;;;;;;2.50;2.50;;;;;15.24;100.00;98340.91;4937515;28;102133;-72
2023/06/29 03:10:43;;;;;;;;;2.00;2.00;;;;;15.24;100.00;98335.47;4933938;28;104241;-72
2023/06/29 03:13:10;;;;;;;;;2.25;2.00;;;;;15.23;100.00;98336.53;4937020;28;102382;-71
2023/06/29 03:15:37;;;;;;;;;1.75;1.75;;;;;14.99;100.00;98298.41;4938053;28;102207;-71
2023/06/29 03:18:04;;;;;;;;;1.00;1.00;;;;;15.26;100.00;98336.06;4938649;28;102205;-71
2023/06/29 03:20:31;;;;;;;;;5.00;4.75;;;;;15.29;100.00;98349.19;4937117;28;103984;-71
2023/06/29 03:22:58;;;;;;;;;4.75;4.75;;;;;15.29;100.00;98341.88;4936521;28;101968;-71
2023/06/29 03:25:25;;;;;;;;;4.00;4.00;;;;;15.28;100.00;98342.91;4935558;28;102331;-71
2023/06/29 03:27:52;;;;;;;;;2.00;2.00;;;;;15.32;100.00;98346.00;4935085;28;102467;-71
2023/06/29 03:30:20;;;;;;;;;1.25;1.00;;;;;15.33;100.00;98339.50;4935052;28;105403;-71
2023/06/29 03:32:46;;;;;;;;;4.00;4.00;;;;;15.34;100.00;98346.59;4935230;28;101803;-71
2023/06/29 03:35:14;;;;;;;;;3.25;3.25;;;;;15.35;100.00;98340.94;4936673;28;103624;-70
2023/06/29 03:37:40;;;;;;;;;4.75;4.00;;;;;15.38;100.00;98348.63;4936895;28;102549;-72
2023/06/29 03:40:08;;;;;;;;;4.25;4.25;;;;;15.39;100.00;98358.44;4937685;28;104003;-73
2023/06/29 03:42:35;;;;;;;;;4.25;4.25;;;;;15.41;100.00;98360.91;4936844;28;102700;-73
2023/06/29 03:45:02;;;;;;;;;4.00;4.00;;;;;15.30;100.00;98346.25;4935054;28;102135;-72
2023/06/29 03:47:29;;;;;;;;;4.00;4.00;;;;;15.42;100.00;98368.88;4934201;28;102308;-72
2023/06/29 03:49:56;;;;;;;;;4.00;4.00;;;;;15.45;100.00;98362.94;4934154;28;104230;-72
2023/06/29 03:52:23;;;;;;;;;2.25;2.25;;;;;15.46;100.00;98363.75;4933171;28;102134;-72
2023/06/29 03:54:50;;;;;;;;;2.67;2.67;;;;;15.46;100.00;98370.03;4929069;28;102040;-72
2023/06/29 03:57:17;;;;;;;;;4.00;4.00;;;;;15.49;100.00;98366.03;4928128;28;102043;-71
2023/06/29 03:59:44;;;;;;;;;2.50;2.50;;;;;15.51;100.00;98369.38;4922553;28;104026;-72
2023/06/29 04:02:11;;;;;;;;;4.50;2.75;;;;;15.54;100.00;98366.16;4923433;28;104998;-71
2023/06/29 04:04:38;;;;;;;;;3.75;3.75;;;;;15.56;100.00;98366.75;4924581;28;104968;-70
2023/06/29 04:07:05;;;;;;;;;3.50;3.50;;;;;15.59;100.00;98369.00;4926531;28;103608;-71
2023/06/29 04:09:32;;;;;;;;;4.75;4.50;;;;;15.60;100.00;98359.75;4926656;28;104204;-71
2023/06/29 04:11:59;;;;;;;;;5.00;4.75;;;;;15.61;100.00;98366.88;4927540;28;102210;-71
2023/06/29 04:14:26;;;;;;;;;3.50;3.00;;;;;15.58;100.00;98357.25;4927353;28;103423;-71
2023/06/29 04:16:53;;;;;;;;;4.25;3.00;;;;;15.68;100.00;98364.00;4927053;28;102426;-71
2023/06/29 04:19:20;;;;;;;;;4.00;3.00;;;;;15.69;100.00;98371.13;4929101;28;104022;-71
2023/06/29 04:21:47;;;;;;;;;6.25;6.25;;;;;15.69;100.00;98369.22;4929376;28;102122;-71
2023/06/29 04:24:14;;;;;;;;;7.00;5.75;;;;;15.68;100.00;98377.63;4922146;28;103688;-70
2023/06/29 04:26:41;;;;;;;;;6.75;5.50;;;;;15.70;100.00;98376.34;4926104;28;102624;-71
2023/06/29 04:29:09;;;;;;;;;4.00;4.00;;;;;15.75;100.00;98384.63;4929588;28;104024;-70
2023/06/29 04:31:36;;;;;;;;;4.00;4.00;;;;;15.78;100.00;98378.69;4928598;28;102788;-71
2023/06/29 04:34:03;;;;;;;;;6.00;4.25;;;;;15.64;100.00;98360.94;4928057;28;102168;-70
2023/06/29 04:36:30;;;;;;;;;5.50;4.00;;;;;15.84;100.00;98377.75;4932021;28;102234;-73
2023/06/29 04:38:57;;;;;;;;;5.50;5.50;;;;;15.87;100.00;98382.69;4934180;28;104062;-73
2023/06/29 04:41:31;;;;;;;;;4.75;4.75;;;;;15.84;100.00;98371.47;4931411;28;102351;-71
2023/06/29 04:43:59;;;;;;;;;5.50;4.25;;;;;15.94;100.00;98386.13;4934636;28;104024;-70
2023/06/29 04:46:30;;;;;;;;;6.25;5.75;;;;;15.94;100.00;98383.38;4933953;28;102087;-71
2023/06/29 04:49:04;;;;;;;;;4.00;4.00;;;;;15.95;100.00;98379.59;4933685;28;104034;-70
2023/06/29 04:51:36;;;;;;;;;5.25;5.00;;;;;15.97;100.00;98382.94;4934581;28;102198;-70
2023/06/29 04:54:07;;;;;;;;;4.00;4.00;;;;;16.03;100.00;98386.56;4934062;28;102483;-71
2023/06/29 04:56:34;;;;;;;;;4.00;3.25;;;;;16.05;100.00;98390.72;4931450;28;102589;-70
2023/06/29 04:59:01;;;;;;;;;4.00;4.00;;;;;16.07;100.00;98383.13;4932065;28;104019;-71
2023/06/29 05:01:28;;;;;;;;;4.00;4.00;;;;;16.14;100.00;98384.88;4933029;28;102086;-71
2023/06/29 05:03:55;;;;;;;;;4.00;3.75;;;;;16.18;100.00;98388.78;4938448;28;102292;-71
2023/06/29 05:06:22;;;;;;;;;5.75;5.00;;;;;16.20;100.00;98383.94;4937189;28;102684;-72
2023/06/29 05:08:49;;;;;;;;;5.00;4.25;;;;;16.04;100.00;98367.25;4937811;28;104009;-72
2023/06/29 05:11:16;;;;;;;;;4.25;4.25;;;;;16.23;100.00;98388.88;4934574;28;102102;-72
2023/06/29 05:13:43;;;;;;;;;2.75;2.75;;;;;15.94;100.00;98347.94;4934387;28;103138;-72
2023/06/29 05:16:11;;;;;;;;;5.00;4.00;;;;;16.27;100.00;98388.16;4937200;28;102154;-71
2023/06/29 05:18:38;;;;;;;;;6.25;6.00;;;;;16.20;100.00;98381.19;4940716;28;104061;-72
2023/06/29 05:21:05;;;;;;;;;5.50;5.00;;;;;16.27;100.00;98387.34;4940813;28;102295;-72
2023/06/29 05:23:33;;;;;;;;;6.00;5.00;;;;;16.27;100.00;98387.34;4941163;28;102595;-71
2023/06/29 05:25:59;;;;;;;;;7.00;6.00;;;;;16.33;100.00;98387.19;4940593;28;102396;-72
2023/06/29 05:28:27;;;;;;;;;5.50;5.50;;;;;16.40;100.00;98387.03;4939608;28;104197;-71
2023/06/29 05:30:54;;;;;;;;;2.00;2.00;;;;;16.48;100.00;98384.75;4940362;28;101955;-71
2023/06/29 05:33:21;;;;;;;;;4.00;4.00;;;;;16.48;100.00;98382.03;4939686;28;101967;-71
2023/06/29 05:35:48;;;;;;;;;3.00;3.00;;;;;16.52;100.00;98390.56;4937129;28;102443;-71
2023/06/29 05:38:15;;;;;;;;;5.25;5.00;;;;;16.52;100.00;98393.31;4935598;28;103988;-72
2023/06/29 05:40:42;;;;;;;;;5.67;5.67;;;;;16.53;100.00;98392.19;4940689;28;102325;-71
2023/06/29 05:43:09;;;;;;;;;7.75;6.50;;;;;16.61;100.00;98383.69;4940787;28;102006;-71
2023/06/29 05:45:36;;;;;;;;;3.33;3.00;;;;;16.60;100.00;98389.38;4942511;28;102176;-72
2023/06/29 05:48:04;;;;;;;;;4.00;4.00;;;;;16.68;100.00;98406.19;4940163;28;104064;-71
2023/06/29 05:50:31;;;;;;;;;4.00;3.67;;;;;16.70;100.00;98386.84;4940166;28;102058;-71
2023/06/29 05:52:58;;;;;;;;;3.00;2.33;;;;;16.79;100.00;98399.84;4939712;28;102194;-73
2023/06/29 05:55:25;;;;;;;;;3.00;3.00;;;;;16.84;100.00;98397.19;4942082;28;101998;-70
2023/06/29 05:57:52;;;;;;;;;4.00;4.00;;;;;16.88;100.00;98406.56;4940461;28;104009;-70
2023/06/29 06:00:19;;;;;;;;;4.00;4.00;;;;;16.89;100.00;98407.38;4938174;28;102692;-70
2023/06/29 06:02:46;;;;;;;;;5.67;5.67;;;;;16.77;100.00;98377.41;4941266;28;102320;-72
2023/06/29 06:05:14;;;;;;;;;1.67;1.67;;;;;16.84;100.00;98407.31;4943945;28;102004;-69
2023/06/29 06:07:41;;;;;;;;;3.00;3.00;;;;;16.63;100.00;98365.13;4940276;28;108673;-71
2023/06/29 06:10:08;;;;;;;;;3.00;3.00;;;;;16.83;100.00;98411.94;4937245;28;102137;-71
2023/06/29 06:12:35;;;;;;;;;2.00;2.00;;;;;16.82;100.00;98406.72;4939396;28;102078;-71
2023/06/29 06:15:03;;;;;;;;;4.00;4.00;;;;;16.68;100.00;98399.88;4913489;28;102238;-71
2023/06/29 06:17:29;;;;;;;;;5.00;5.00;;;;;16.57;100.00;98420.66;4940890;28;104011;-71
2023/06/29 06:19:57;;;;;;;;;3.00;3.00;;;;;16.63;100.00;98419.72;4940448;28;102195;-71
2023/06/29 06:22:24;;;;;;;;;7.00;6.00;;;;;16.68;100.00;98419.84;4939836;28;102466;-70
2023/06/29 06:24:50;;;;;;;;;6.00;5.75;;;;;16.30;100.00;98382.22;4940773;28;102570;-71
2023/06/29 06:27:18;;;;;;;;;6.75;6.75;;;;;16.56;100.00;98421.75;4940121;28;104233;-70
2023/06/29 06:29:45;;;;;;;;;4.50;4.50;;;;;16.58;100.00;98432.44;4939758;28;102074;-70
2023/06/29 06:32:12;;;;;;;;;4.67;4.33;;;;;16.72;100.00;98423.72;4940993;28;102030;-70
2023/06/29 06:34:39;;;;;;;;;5.00;4.00;;;;;16.78;100.00;98428.22;4938719;28;102336;-71
2023/06/29 06:37:07;;;;;;;;;7.67;7.00;;;;;16.65;100.00;98414.88;4937016;28;104066;-71
2023/06/29 06:39:34;;;;;;;;;6.25;5.25;;;;;16.74;100.00;98426.22;4942039;28;101935;-71
2023/06/29 06:42:01;;;;;;;;;4.00;4.00;;;;;16.74;100.00;98429.78;4940978;28;102020;-71
2023/06/29 06:44:28;;;;;;;;;5.33;4.00;;;;;16.87;100.00;98436.84;4935819;28;102078;-71
2023/06/29 06:46:55;;;;;;;;;5.75;4.75;;;;;16.89;100.00;98427.31;4939639;28;104048;-70
2023/06/29 06:49:22;;;;;;;;;4.67;4.33;;;;;17.03;100.00;98429.72;4936455;28;102405;-70
2023/06/29 06:51:49;;;;;;;;;7.50;6.25;;;;;17.06;100.00;98423.78;4934092;28;102013;-71
2023/06/29 06:54:16;;;;;;;;;6.00;6.00;;;;;17.17;100.00;98428.34;4933545;28;101931;-70
2023/06/29 06:56:47;;;;;;;;;4.00;4.00;;;;;17.32;100.00;98431.34;4935504;28;107486;-70
2023/06/29 06:59:15;;;;;;;;;6.00;5.00;;;;;17.44;100.00;98432.06;4939548;28;102328;-71
2023/06/29 07:01:42;;;;;;;;;4.33;4.00;;;;;17.56;99.65;98430.06;4937095;28;102674;-71
2023/06/29 07:04:09;;;;;;;;;3.33;3.33;;;;;17.64;99.64;98420.66;4939252;28;102717;-70
2023/06/29 07:06:37;;;;;;;;;4.00;4.00;;;;;17.92;99.93;98427.91;4939321;28;104421;-70
2023/06/29 07:09:05;;;;;;;;;8.00;7.67;;;;;18.02;96.47;98428.03;4938579;28;101900;-71
2023/06/29 07:11:34;;;;;;;;;7.00;6.00;;;;;18.11;97.06;98430.06;4939223;28;102427;-71
2023/06/29 07:14:01;;;;;;;;;5.67;5.33;;;;;18.34;97.14;98428.16;4937245;28;102010;-70
2023/06/29 07:16:28;;;;;;;;;5.33;5.00;;;;;18.36;94.98;98426.84;4937102;28;104261;-70
2023/06/29 07:19:05;;;;;;;;;6.00;5.33;;;;;18.32;96.29;98417.50;4939235;28;101899;-71
2023/06/29 07:21:35;;;;;;;;;7.67;7.00;;;;;18.40;94.86;98422.50;4938610;28;102369;-71
2023/06/29 07:24:02;;;;;;;;;8.00;8.00;;;;;18.40;95.37;98427.16;4939956;28;102019;-71
2023/06/29 07:26:32;;;;;;;;;6.00;6.00;;;;;18.33;95.42;98440.22;4937882;28;103862;-71
2023/06/29 07:28:59;;;;;;;;;9.00;8.67;;;;;18.32;95.51;98428.44;4938077;28;102457;-71
2023/06/29 07:31:27;;;;;;;;;9.33;7.67;;;;;18.26;95.09;98435.75;4938376;28;101907;-70
2023/06/29 07:33:55;;;;;;;;;9.00;7.00;;;;;18.12;92.91;98433.66;4939019;28;102682;-72
2023/06/29 07:36:24;;;;;;;;;17.50;17.00;;;;;17.57;97.37;98434.47;4935879;28;104135;-71
2023/06/29 07:38:52;;;;;;;;;20.25;18.50;;;;;17.38;97.05;98439.34;4937279;28;102362;-70
2023/06/29 07:41:20;;;;;;;;;15.75;14.75;;;;;17.49;97.73;98443.09;4938729;28;102378;-70
2023/06/29 07:43:50;;;;;;;;;13.00;10.50;;;;;17.60;97.81;98439.50;4939882;28;102103;-71
2023/06/29 07:46:17;;;;;;;;;11.33;10.67;;;;;17.61;96.46;98440.28;4934698;28;108695;-69
2023/06/29 07:48:46;;;;;;;;;10.33;8.00;;;;;17.60;97.41;98444.13;4937559;28;102224;-70
2023/06/29 07:51:14;;;;;;;;;10.33;9.00;;;;;17.62;97.74;98439.22;4939248;28;102516;-71
2023/06/29 07:53:41;;;;;;;;;8.33;7.00;;;;;17.62;97.60;98447.41;4938810;28;102055;-70
2023/06/29 07:56:09;;;;;;;;;9.33;7.00;;;;;17.62;97.98;98439.22;4938597;28;104112;-70
2023/06/29 07:58:36;;;;;;;;;8.00;8.00;;;;;17.63;98.63;98440.88;4936134;28;107596;-70
2023/06/29 08:01:06;;;;;;;;;7.33;7.33;;;;;17.70;99.11;98438.78;4937035;28;102417;-70
2023/06/29 08:03:33;;;;;;;;;11.25;9.75;;;;;17.67;98.57;98444.75;4938221;28;102037;-72
2023/06/29 08:06:17;;;;;;;;;13.75;12.00;;;;;17.47;100.00;98445.22;4935343;28;107516;-69
2023/06/29 08:08:48;;;;;;;;;15.25;14.25;;;;;17.59;99.22;98440.56;4939376;28;102533;-69
2023/06/29 08:11:16;;;;;;;;;11.67;11.00;;;;;17.73;99.18;98436.41;4939842;28;102364;-71
2023/06/29 08:13:43;;;;;;;;;14.50;11.00;;;;;18.02;98.58;98439.81;4938882;28;101967;-70
2023/06/29 08:16:10;;;;;;;;;11.67;9.33;;;;;18.13;97.49;98443.53;4937914;28;103990;-70
2023/06/29 08:18:37;;;;;;;;;10.00;9.67;;;;;18.22;95.89;98428.31;4933767;28;102147;-70
2023/06/29 08:21:04;;;;;;;;;8.67;7.33;;;;;18.34;95.46;98436.38;4934173;28;102409;-70
2023/06/29 08:23:32;;;;;;;;;11.33;9.00;;;;;18.34;97.38;98436.38;4934917;28;102516;-70
2023/06/29 08:26:00;;;;;;;;;8.00;7.67;;;;;18.35;97.01;98443.53;4936797;28;104288;-70
2023/06/29 08:28:27;;;;;;;;;9.00;7.33;;;;;18.30;96.06;98449.75;4937864;28;102360;-70
2023/06/29 08:30:54;;;;;;;;;7.67;7.67;;;;;18.27;96.45;98450.28;4937660;28;101955;-70
2023/06/29 08:33:23;;;;;;;;;7.33;6.00;;;;;18.21;96.42;98448.53;4939121;28;102447;-70
2023/06/29 08:35:51;;;;;;;;;13.00;13.00;;;;;18.00;96.26;98452.09;4950736;28;104171;-71
2023/06/29 08:38:18;;;;;;;;;13.33;12.00;;;;;17.79;97.31;98457.25;4944790;28;102246;-69
2023/06/29 08:40:49;;;;;;;;;13.25;12.50;;;;;17.81;98.87;98455.13;4946575;28;102042;-69
2023/06/29 08:43:17;;;;;;;;;10.67;9.33;;;;;17.93;99.57;98451.44;4945763;28;101992;-70
2023/06/29 08:45:45;;;;;;;;;11.00;10.33;;;;;17.96;98.98;98456.41;4941109;28;108993;-70
2023/06/29 08:48:17;;;;;;;;;10.67;9.00;;;;;17.94;97.07;98453.09;4940114;28;102321;-70
2023/06/29 08:50:50;;;;;;;;;8.67;8.67;;;;;17.99;98.17;98451.25;4942349;28;102822;-70
2023/06/29 08:53:17;;;;;;;;;7.67;7.33;;;;;18.03;97.95;98451.56;4944399;28;105493;-70
2023/06/29 08:55:44;;;;;;;;;10.67;9.00;;;;;18.03;98.23;98457.06;4944640;28;108757;-70
2023/06/29 08:58:12;;;;;;;;;8.33;8.33;;;;;17.86;97.42;98434.38;4942298;28;101921;-70
2023/06/29 09:00:41;;;;;;;;;10.00;8.00;;;;;17.89;98.20;98455.75;4944934;28;102070;-70
2023/06/29 09:03:08;;;;;;;;;16.00;14.25;;;;;17.65;99.25;98455.16;4945168;28;103647;-70
2023/06/29 09:05:36;;;;;;;;;12.00;12.00;;;;;17.62;99.61;98447.41;4943898;28;104151;-70
2023/06/29 09:08:03;;;;;;;;;9.00;9.00;;;;;17.72;98.78;98456.63;4944165;28;101971;-70
2023/06/29 09:10:31;;;;;;;;;5.67;5.67;;;;;17.83;98.01;98455.69;4943099;28;102232;-70
2023/06/29 09:12:58;;;;;;;;;13.00;12.25;;;;;17.96;99.62;98450.94;4943820;28;103571;-70
2023/06/29 09:15:27;;;;;;;;;9.33;9.33;;;;;18.11;97.19;98462.09;4944006;28;104043;-69
2023/06/29 09:17:55;;;;;;;;;10.33;10.33;;;;;18.30;95.99;98452.50;4935352;28;102587;-69
2023/06/29 09:20:25;;;;;;;;;9.00;9.00;;;;;18.35;96.86;98438.03;4940675;28;102053;-68
2023/06/29 09:22:52;;;;;;;;;8.33;7.33;;;;;18.52;93.90;98458.78;4941314;28;102817;-69
2023/06/29 09:25:21;;;;;;;;;8.33;6.67;;;;;18.61;93.42;98448.25;4940891;28;108454;-70
2023/06/29 09:28:04;;;;;;;;;9.00;7.33;;;;;18.63;93.33;98435.97;4938516;28;101884;-69
2023/06/29 09:30:40;;;;;;;;;7.67;7.67;;;;;18.68;92.43;98449.72;4938705;28;102057;-69
2023/06/29 09:33:15;;;;;;;;;8.00;8.00;;;;;18.83;91.62;98451.78;4944402;28;102339;-69
2023/06/29 09:35:47;;;;;;;;;6.67;6.67;;;;;18.94;92.54;98447.25;4938641;28;104091;-69
2023/06/29 09:38:18;;;;;;;;;6.00;6.00;;;;;18.96;91.45;98437.66;4940946;28;104273;-72
2023/06/29 09:40:55;;;;;;;;;7.33;7.33;;;;;19.16;90.68;98446.09;4940773;28;102439;-69
2023/06/29 09:43:26;;;;;;;;;5.33;5.33;;;;;19.11;89.62;98453.44;4943311;28;102040;-69
2023/06/29 09:46:07;;;;;;;;;9.00;8.00;;;;;19.28;90.36;98454.13;4943830;28;108808;-69
2023/06/29 09:48:45;;;;;;;;;9.00;8.67;;;;;19.46;89.33;98450.22;4940192;28;102539;-69
2023/06/29 09:51:20;;;;;;;;;11.33;10.00;;;;;19.67;88.95;98445.72;4938093;28;102268;-70
2023/06/29 09:53:48;;;;;;;;;14.33;12.00;;;;;19.85;87.44;98437.06;4939757;28;102205;-70
2023/06/29 09:56:16;;;;;;;;;9.67;9.00;;;;;20.24;84.46;98443.88;4936003;28;104110;-70
2023/06/29 09:58:45;;;;;;;;;11.33;10.67;;;;;20.49;84.34;98441.25;4937237;28;102193;-70
2023/06/29 10:01:15;;;;;;;;;22.50;21.50;;;;;20.36;81.49;98439.00;4932475;28;102090;-69
2023/06/29 10:03:44;;;;;;;;;11.33;11.33;;;;;20.52;83.59;98437.16;4940046;28;102944;-70
2023/06/29 10:06:14;;;;;;;;;15.67;14.33;;;;;20.46;83.89;98428.06;4939495;28;103838;-69
2023/06/29 10:08:44;;;;;;;;;9.33;8.33;;;;;20.71;82.77;98432.00;4935091;28;102808;-69
2023/06/29 10:11:13;;;;;;;;;9.00;9.00;;;;;20.81;84.20;98426.53;4934449;28;102295;-69
2023/06/29 10:13:47;;;;;;;;;8.67;8.67;;;;;21.06;79.82;98421.09;4936942;28;102548;-69
2023/06/29 10:16:19;;;;;;;;;9.33;9.00;;;;;21.09;79.98;98423.28;4933910;28;104062;-69
2023/06/29 10:18:50;;;;;;;;;6.00;6.00;;;;;21.09;81.29;98422.44;4933986;28;102400;-69
2023/06/29 10:21:17;;;;;;;;;7.67;7.00;;;;;21.04;79.60;98411.44;4938285;28;101923;-69
2023/06/29 10:23:46;;;;;;;;;7.00;6.67;;;;;20.87;78.08;98406.22;4939495;28;104187;-70
2023/06/29 10:26:14;;;;;;;;;10.00;9.00;;;;;20.50;80.23;98414.63;4937169;28;104289;-69
2023/06/29 10:28:41;;;;;;;;;7.00;7.00;;;;;20.79;82.03;98402.06;4938908;28;101912;-70
2023/06/29 10:31:08;;;;;;;;;8.33;8.33;;;;;21.07;83.33;98399.91;4938726;28;102085;-69
2023/06/29 10:33:53;;;;;;;;;6.00;6.00;;;;;21.18;76.22;98396.09;4939371;28;103561;-69
2023/06/29 10:36:20;;;;;;;;;6.00;6.00;;;;;21.34;77.67;98401.31;4935750;28;108789;-69
2023/06/29 10:38:47;;;;;;;;;14.33;12.00;;;;;21.36;74.78;98399.13;4939305;28;101990;-70
2023/06/29 10:41:27;;;;;;;;;6.33;6.00;;;;;21.58;76.83;98387.81;4938256;28;102189;-69
2023/06/29 10:44:00;;;;;;;;;6.00;5.00;;;;;21.93;77.54;98397.16;4938355;28;102209;-70
2023/06/29 10:46:49;;;;;;;;;8.67;8.00;;;;;21.82;74.32;98393.56;4938243;28;103996;-70
2023/06/29 10:49:23;;;;;;;;;8.67;8.00;;;;;22.05;75.36;98395.75;4936692;28;102201;-69
2023/06/29 10:51:54;;;;;;;;;8.00;8.00;;;;;22.24;70.36;98380.22;4935613;28;102465;-70
2023/06/29 10:54:25;;;;;;;;;7.67;7.67;;;;;22.47;75.84;98387.00;4951485;28;102137;-70
2023/06/29 10:57:05;;;;;;;;;7.00;6.67;;;;;22.56;68.07;98374.28;4939171;28;104005;-70
2023/06/29 10:59:34;;;;;;;;;9.00;8.00;;;;;22.49;72.40;98382.06;4933941;28;101989;-70
2023/06/29 11:02:03;;;;;;;;;7.00;7.00;;;;;21.99;71.77;98382.25;4936185;28;101799;-70
2023/06/29 11:04:30;;;;;;;;;6.67;5.33;;;;;22.12;72.18;98382.50;4937173;28;102080;-69
2023/06/29 11:07:05;;;;;;;;;6.33;5.33;;;;;22.39;70.77;98373.00;4943458;28;104000;-70
2023/06/29 11:09:33;;;;;;;;;6.00;5.00;;;;;22.60;73.48;98358.84;4933861;28;102462;-70
2023/06/29 11:12:00;;;;;;;;;4.67;4.67;;;;;22.75;72.99;98368.97;4936627;28;101942;-70
2023/06/29 11:14:27;;;;;;;;;3.33;3.33;;;;;22.76;71.59;98365.13;4941696;28;101956;-70
2023/06/29 11:16:54;;;;;;;;;4.00;4.00;;;;;22.65;70.04;98367.06;4939193;28;108871;-71
2023/06/29 11:19:27;;;;;;;;;6.00;5.00;;;;;22.58;70.31;98360.25;4938969;28;102381;-69
2023/06/29 11:21:55;;;;;;;;;3.50;3.00;;;;;22.60;68.36;98345.06;4936855;28;101982;-69
2023/06/29 11:24:22;;;;;;;;;5.00;4.67;;;;;22.87;67.91;98352.94;4938957;28;102342;-70
2023/06/29 11:26:49;;;;;;;;;3.33;3.33;;;;;22.88;69.27;98349.03;4938419;28;104176;-69